Time;durP1;ratioP1;P1;durP2;ratioP2;P2;SDS_P1;SDS_P2;PMS_P1;PMS_P2;Temp;Humidity;BMP_temperature;BMP_pressure;BME280_temperature;BME280_humidity;BME280_pressure;Samples;Min_cycle;Max_cycle;Signal;HPM_P1;HPM_P2
2023/07/30 11:01:43;;;;;;;;;;;;;;;22.66;54.59;99622.72;1087338;47;19956;-88
2023/07/30 13:08:22;;;;;;;;;;;;;;;23.74;44.35;99696.06;1087743;54;19939;-87
2023/07/30 13:09:23;;;;;;;;;;;;;;;23.70;44.36;99708.56;1088550;39;20637;-88
2023/07/30 13:10:26;;;;;;;;;;;;;;;23.66;44.37;99701.91;1087379;47;19974;-86
2023/07/30 13:11:27;;;;;;;;;;;;;;;23.66;44.76;99696.44;1087218;47;19973;-88
2023/07/30 13:12:30;;;;;;;;;;;;;;;23.76;44.56;99690.38;1087234;47;19954;-88
2023/07/30 13:13:31;;;;;;;;;;;;;;;23.58;44.67;99703.09;1087369;46;19943;-87
2023/07/30 13:14:32;;;;;;;;;;;;;;;23.57;44.85;99698.69;1087331;47;19938;-88
2023/07/30 13:15:35;;;;;;;;;;;;;;;23.51;44.74;99689.59;1087525;47;20740;-88
2023/07/30 13:16:36;;;;;;;;;;;;;;;23.66;44.25;99694.53;1086921;47;19942;-91
2023/07/30 13:17:39;;;;;;;;;;;;;;;23.75;43.81;99702.38;1087574;54;19943;-88
2023/07/30 13:18:40;;;;;;;;;;;;;;;23.63;43.36;99697.75;1087674;54;19950;-86
2023/07/30 13:19:41;;;;;;;;;;;;;;;23.64;43.39;99693.97;1087540;54;19954;-87
2023/07/30 13:20:44;;;;;;;;;;;;;;;23.82;42.74;99689.41;1087633;46;19942;-88
2023/07/30 13:30:21;;;;;;;;;;;;;;;23.81;41.33;99696.75;1087442;54;19966;-86
2023/07/30 13:31:22;;;;;;;;;;;;;;;23.65;41.07;99713.88;1087492;54;19942;-85
2023/07/30 13:32:25;;;;;;;;;;;;;;;23.61;41.50;99699.91;1087470;47;19967;-85
2023/07/30 13:33:26;;;;;;;;;;;;;;;23.74;41.12;99707.00;1087367;46;19954;-88
2023/07/30 13:34:30;;;;;;;;;;;;;;;23.58;41.60;99716.72;1087615;47;19946;-86
2023/07/30 13:35:30;;;;;;;;;;;;;;;23.40;41.62;99706.81;1087487;47;19967;-85
2023/07/30 13:36:34;;;;;;;;;;;;;;;23.46;41.48;99708.56;1087506;54;19943;-86
2023/07/30 13:37:35;;;;;;;;;;;;;;;23.48;41.56;99706.44;1087714;54;19966;-86
2023/07/30 13:38:38;;;;;;;;;;;;;;;23.61;41.34;99716.25;1087672;54;19966;-86
2023/07/30 13:39:39;;;;;;;;;;;;;;;23.74;41.22;99712.44;1087485;47;19995;-87
2023/07/30 13:40:42;;;;;;;;;;;;;;;23.64;41.91;99717.69;1087412;54;19942;-87
2023/07/30 13:41:43;;;;;;;;;;;;;;;23.70;41.47;99707.72;1087582;47;19951;-86
2023/07/30 13:42:47;;;;;;;;;;;;;;;23.63;41.64;99719.59;1087245;54;19943;-85
2023/07/30 13:43:47;;;;;;;;;;;;;;;23.57;41.88;99714.25;1087286;47;19974;-87
2023/07/30 13:44:51;;;;;;;;;;;;;;;23.45;42.27;99715.09;1087272;54;20790;-89
2023/07/30 13:45:54;;;;;;;;;;;;;;;23.20;42.33;99712.59;1087393;47;20018;-87
2023/07/30 13:46:57;;;;;;;;;;;;;;;23.13;42.95;99726.34;1087321;47;19942;-87
2023/07/30 13:47:58;;;;;;;;;;;;;;;23.15;43.00;99724.19;1087447;54;19942;-88
2023/07/30 13:49:02;;;;;;;;;;;;;;;23.18;42.83;99718.28;1087699;54;19967;-87
2023/07/30 13:50:03;;;;;;;;;;;;;;;23.25;42.60;99718.19;1087656;54;20017;-87
2023/07/30 13:51:06;;;;;;;;;;;;;;;23.23;42.83;99725.75;1087541;46;19958;-88
2023/07/30 13:52:07;;;;;;;;;;;;;;;23.22;42.88;99718.66;1087563;54;19942;-88
2023/07/30 13:53:12;;;;;;;;;;;;;;;23.22;42.74;99718.66;1087530;54;19942;-88
2023/07/30 13:54:13;;;;;;;;;;;;;;;23.39;42.73;99716.06;1087524;47;19942;-88
2023/07/30 15:11:45;;;;;;;;;;;;;;;25.18;35.40;99735.38;1087191;54;19943;-86
2023/07/30 17:08:58;;;;;;;;;;;;;;;22.61;36.50;99775.97;1086806;46;19938;-87
2023/07/30 17:09:59;;;;;;;;;;;;;;;22.57;36.51;99772.88;1087362;54;20279;-87
2023/07/30 17:11:05;;;;;;;;;;;;;;;22.63;36.57;99775.72;1087474;47;19943;-89
2023/07/30 18:00:06;;;;;;;;;;;;;;;21.76;41.61;99812.94;1089603;39;21039;-90
2023/07/30 18:01:17;;;;;;;;;;;;;;;21.88;41.67;99815.75;1087356;54;19943;-88
2023/07/30 18:02:21;;;;;;;;;;;;;;;21.75;41.92;99814.00;1093406;39;20303;-88
2023/07/30 18:03:22;;;;;;;;;;;;;;;21.77;41.85;99814.59;1087692;47;19950;-87
2023/07/30 18:04:25;;;;;;;;;;;;;;;21.84;41.75;99818.09;1087347;47;19947;-89
2023/07/30 18:05:26;;;;;;;;;;;;;;;21.87;41.75;99805.94;1087510;47;19966;-88
2023/07/30 18:20:43;;;;;;;;;;;;;;;21.55;42.73;99819.59;1088573;39;21195;-79
2023/07/30 18:21:44;;;;;;;;;;;;;;;21.50;43.21;99828.41;1087498;54;19942;-79
2023/07/30 18:22:47;;;;;;;;;;;;;;;21.45;43.10;99830.97;1087449;54;19943;-80
2023/07/30 18:23:48;;;;;;;;;;;;;;;21.34;43.23;99822.50;1087184;54;19950;-81
2023/07/30 18:24:51;;;;;;;;;;;;;;;21.35;43.32;99826.03;1087038;54;19942;-80
2023/07/30 18:25:52;;;;;;;;;;;;;;;21.36;43.27;99830.41;1087164;47;19950;-81
2023/07/30 18:26:55;;;;;;;;;;;;;;;21.39;43.29;99827.25;1087136;47;19974;-84
2023/07/30 18:27:56;;;;;;;;;;;;;;;21.41;43.63;99832.47;1087116;47;19962;-79
2023/07/30 18:29:00;;;;;;;;;;;;;;;21.44;43.34;99827.41;1086986;47;19942;-79
2023/07/30 18:30:00;;;;;;;;;;;;;;;21.33;43.51;99828.97;1087033;54;19946;-81
2023/07/30 18:31:04;;;;;;;;;;;;;;;21.32;43.47;99827.31;1087374;54;19942;-78
2023/07/30 18:32:05;;;;;;;;;;;;;;;21.39;43.65;99821.81;1087048;47;19966;-80
2023/07/30 18:33:09;;;;;;;;;;;;;;;21.38;43.52;99830.19;1086954;54;19958;-79
2023/07/30 18:34:10;;;;;;;;;;;;;;;21.25;43.62;99836.56;1087220;54;19942;-80
2023/07/30 18:35:13;;;;;;;;;;;;;;;21.15;43.80;99827.00;1087647;46;20035;-80
2023/07/30 18:36:17;;;;;;;;;;;;;;;21.24;43.92;99830.31;1087177;54;19942;-82
2023/07/30 18:37:20;;;;;;;;;;;;;;;21.31;43.83;99831.06;1087366;54;19962;-81
2023/07/30 18:38:20;;;;;;;;;;;;;;;21.24;43.97;99841.19;1087345;54;19942;-81
2023/07/30 18:39:21;;;;;;;;;;;;;;;21.13;43.90;99839.16;1088069;39;20578;-80
2023/07/30 18:40:25;;;;;;;;;;;;;;;21.14;44.06;99846.25;1086675;47;19990;-81
2023/07/30 18:41:26;;;;;;;;;;;;;;;21.17;43.99;99841.22;1086270;54;19958;-80
2023/07/30 18:42:29;;;;;;;;;;;;;;;21.13;44.11;99842.69;1086634;47;19950;-82
2023/07/30 18:43:30;;;;;;;;;;;;;;;21.17;44.33;99845.81;1086560;47;19951;-81
2023/07/30 18:44:34;;;;;;;;;;;;;;;21.08;44.21;99847.97;1086182;47;19954;-80
2023/07/30 18:45:35;;;;;;;;;;;;;;;21.14;44.33;99846.25;1085907;54;20810;-80
2023/07/30 18:46:38;;;;;;;;;;;;;;;21.11;44.40;99846.69;1086148;47;19990;-79
2023/07/30 18:47:39;;;;;;;;;;;;;;;21.10;44.40;99851.31;1086604;47;21427;-79
2023/07/30 18:48:42;;;;;;;;;;;;;;;21.06;44.65;99849.25;1086227;47;19950;-79
2023/07/30 18:49:43;;;;;;;;;;;;;;;21.10;44.35;99856.75;1086805;54;20011;-79
2023/07/30 18:50:48;;;;;;;;;;;;;;;21.09;44.47;99854.22;1087114;54;19943;-79
2023/07/30 18:51:52;;;;;;;;;;;;;;;21.14;44.52;99854.41;1087018;54;19942;-79
2023/07/30 18:52:55;;;;;;;;;;;;;;;21.10;44.71;99853.19;1087342;54;19951;-81
2023/07/30 18:53:56;;;;;;;;;;;;;;;21.16;44.32;99852.31;1086977;47;19943;-81
2023/07/30 18:54:59;;;;;;;;;;;;;;;21.24;44.13;99854.75;1086816;54;19946;-79
2023/07/30 18:56:01;;;;;;;;;;;;;;;21.10;44.57;99853.19;1086739;54;19955;-80
2023/07/30 18:57:05;;;;;;;;;;;;;;;21.09;44.77;99849.63;1087378;39;20140;-81
2023/07/30 18:58:05;;;;;;;;;;;;;;;21.01;44.83;99853.44;1086687;47;19942;-81
2023/07/30 18:59:09;;;;;;;;;;;;;;;21.06;44.61;99854.69;1086384;47;19943;-80
2023/07/30 19:00:10;;;;;;;;;;;;;;;21.12;44.52;99851.06;1086928;54;19943;-81
2023/07/30 19:01:13;;;;;;;;;;;;;;;21.03;45.04;99851.34;1086678;54;19955;-80
2023/07/30 19:02:14;;;;;;;;;;;;;;;21.00;45.25;99851.75;1086592;47;19978;-80
2023/07/30 19:03:18;;;;;;;;;;;;;;;20.98;45.10;99853.88;1087600;39;20612;-80
2023/07/30 19:04:19;;;;;;;;;;;;;;;20.97;45.08;99851.38;1086797;54;19970;-81
2023/07/30 19:05:22;;;;;;;;;;;;;;;20.88;45.55;99851.63;1086492;47;19974;-80
2023/07/30 19:06:24;;;;;;;;;;;;;;;20.80;45.51;99853.75;1086662;54;19942;-79
2023/07/30 19:07:30;;;;;;;;;;;;;;;20.81;45.46;99852.72;1086408;47;19966;-81
2023/07/30 19:08:31;;;;;;;;;;;;;;;20.81;45.66;99855.44;1086511;54;19951;-80
2023/07/30 19:09:34;;;;;;;;;;;;;;;20.83;45.84;99850.63;1086286;54;19986;-80
2023/07/30 19:10:35;;;;;;;;;;;;;;;20.87;45.81;99851.88;1086172;54;19953;-80
2023/07/30 19:11:39;;;;;;;;;;;;;;;20.91;45.43;99852.25;1086527;54;19970;-79
2023/07/30 19:12:41;;;;;;;;;;;;;;;20.84;45.89;99849.56;1088633;39;20393;-80
2023/07/30 19:13:44;;;;;;;;;;;;;;;20.84;45.63;99852.28;1086255;54;20039;-80
2023/07/30 19:14:45;;;;;;;;;;;;;;;20.88;45.46;99843.50;1086166;47;19950;-79
2023/07/30 19:15:48;;;;;;;;;;;;;;;20.87;45.60;99860.00;1086160;54;19966;-80
2023/07/30 19:16:49;;;;;;;;;;;;;;;20.80;46.07;99859.19;1086580;54;19974;-80
2023/07/30 19:17:52;;;;;;;;;;;;;;;20.88;45.71;99859.78;1088164;39;20235;-79
2023/07/30 19:18:53;;;;;;;;;;;;;;;20.80;45.99;99857.31;1086460;54;19949;-80
2023/07/30 19:19:56;;;;;;;;;;;;;;;20.83;46.24;99861.47;1085896;54;19950;-80
2023/07/30 19:20:57;;;;;;;;;;;;;;;20.82;46.02;99857.94;1085610;54;19964;-80
2023/07/30 19:21:58;;;;;;;;;;;;;;;20.77;46.35;99859.66;1085952;47;19939;-81
2023/07/30 19:23:04;;;;;;;;;;;;;;;20.71;46.31;99867.56;1086619;47;19954;-82
2023/07/30 19:24:05;;;;;;;;;;;;;;;20.71;46.62;99866.75;1086893;54;20031;-83
2023/07/30 19:25:10;;;;;;;;;;;;;;;20.68;47.01;99859.00;1086915;47;19962;-81
2023/07/30 19:26:11;;;;;;;;;;;;;;;20.71;46.64;99862.13;1086829;54;19966;-83
2023/07/30 19:27:14;;;;;;;;;;;;;;;20.70;47.01;99859.63;1086880;54;19967;-81
2023/07/30 19:28:16;;;;;;;;;;;;;;;20.65;47.31;99865.72;1086877;54;19992;-81
2023/07/30 19:29:20;;;;;;;;;;;;;;;20.65;47.46;99864.88;1086913;54;19977;-84
2023/07/30 19:30:20;;;;;;;;;;;;;;;20.61;47.15;99859.03;1086933;47;19950;-83
2023/07/30 19:31:39;;;;;;;;;;;;;;;20.65;47.13;99864.88;1086907;54;19966;-83
2023/07/30 19:33:21;;;;;;;;;;;;;;;20.58;47.83;99864.91;1086927;47;19958;-83
2023/07/30 19:34:28;;;;;;;;;;;;;;;20.62;47.51;99866.13;1086617;47;19977;-82
2023/07/30 19:35:29;;;;;;;;;;;;;;;20.54;47.83;99859.09;1086972;54;20001;-82
2023/07/30 19:36:32;;;;;;;;;;;;;;;20.51;47.74;99861.38;1086968;47;19942;-83
2023/07/30 19:37:33;;;;;;;;;;;;;;;20.49;48.29;99860.78;1087327;39;20930;-82
2023/07/30 19:38:39;;;;;;;;;;;;;;;20.43;48.14;99857.03;1086968;47;19943;-83
2023/07/30 19:39:40;;;;;;;;;;;;;;;20.38;48.57;99856.84;1086887;54;19962;-84
2023/07/30 19:40:50;;;;;;;;;;;;;;;20.31;48.75;99859.56;1087766;39;20372;-85
2023/07/30 19:41:51;;;;;;;;;;;;;;;20.27;48.62;99863.75;1086992;47;19949;-83
2023/07/30 19:42:55;;;;;;;;;;;;;;;20.28;48.73;99860.00;1086880;47;19938;-84
2023/07/30 19:43:56;;;;;;;;;;;;;;;20.33;48.75;99862.91;1086897;54;19963;-83
2023/07/30 19:44:59;;;;;;;;;;;;;;;20.33;48.57;99868.31;1086790;47;19943;-84
2023/07/30 19:46:01;;;;;;;;;;;;;;;20.34;48.81;99858.31;1086890;54;20044;-83
2023/07/30 19:47:04;;;;;;;;;;;;;;;20.26;49.35;99879.19;1086927;54;19943;-83
2023/07/30 19:48:05;;;;;;;;;;;;;;;20.34;49.01;99864.56;1086913;54;19946;-83
2023/07/30 19:49:09;;;;;;;;;;;;;;;20.34;48.74;99861.03;1086901;54;19943;-83
2023/07/30 19:50:09;;;;;;;;;;;;;;;20.34;49.06;99864.56;1087049;47;19942;-83
2023/07/30 19:51:11;;;;;;;;;;;;;;;20.33;48.76;99868.31;1087097;54;19950;-82
2023/07/30 19:52:14;;;;;;;;;;;;;;;20.30;49.00;99871.50;1087576;54;19950;-84
2023/07/30 19:53:15;;;;;;;;;;;;;;;20.29;49.04;99864.38;1087411;47;19949;-84
2023/07/30 19:54:22;;;;;;;;;;;;;;;20.30;49.52;99862.50;1087402;54;19977;-82
2023/07/30 19:55:23;;;;;;;;;;;;;;;20.31;49.32;99858.75;1087340;47;19966;-83
2023/07/30 19:56:26;;;;;;;;;;;;;;;20.22;49.85;99868.97;1087484;47;19942;-84
2023/07/30 19:57:28;;;;;;;;;;;;;;;20.20;49.60;99868.38;1087480;54;20002;-83
2023/07/30 19:58:32;;;;;;;;;;;;;;;20.23;49.21;99862.50;1087412;47;19939;-82
2023/07/30 19:59:33;;;;;;;;;;;;;;;20.24;49.45;99864.19;1087329;54;19949;-83
2023/07/30 20:00:37;;;;;;;;;;;;;;;20.30;49.16;99863.34;1087388;47;19943;-82
2023/07/30 20:01:39;;;;;;;;;;;;;;;20.34;49.03;99861.84;1087465;47;19966;-82
2023/07/30 20:02:42;;;;;;;;;;;;;;;20.33;49.13;99865.63;1087423;54;19974;-84
2023/07/30 20:03:43;;;;;;;;;;;;;;;20.36;49.00;99865.19;1087416;47;19942;-82
2023/07/30 20:04:46;;;;;;;;;;;;;;;20.38;49.03;99862.25;1087372;54;19986;-84
2023/07/30 20:05:47;;;;;;;;;;;;;;;20.40;49.20;99863.69;1091179;39;20220;-82
2023/07/30 20:06:53;;;;;;;;;;;;;;;20.44;48.98;99866.00;1087522;54;19950;-81
2023/07/30 20:07:54;;;;;;;;;;;;;;;20.45;48.72;99860.34;1087661;54;19943;-82
2023/07/30 20:08:57;;;;;;;;;;;;;;;20.42;49.13;99863.50;1087396;47;19942;-83
2023/07/30 20:10:01;;;;;;;;;;;;;;;20.45;48.80;99862.25;1087275;47;19966;-82
2023/07/30 20:11:02;;;;;;;;;;;;;;;20.45;49.03;99864.97;1087464;54;19998;-83
2023/07/30 20:12:07;;;;;;;;;;;;;;;20.44;48.90;99861.41;1087362;54;19950;-84
2023/07/30 20:13:07;;;;;;;;;;;;;;;20.39;49.22;99872.06;1087336;47;19943;-83
2023/07/30 20:14:11;;;;;;;;;;;;;;;20.31;49.56;99865.00;1087413;54;19943;-82
2023/07/30 20:15:11;;;;;;;;;;;;;;;20.30;49.65;99867.94;1087361;54;19974;-82
2023/07/30 20:16:15;;;;;;;;;;;;;;;20.29;49.31;99869.81;1087449;46;19983;-84
2023/07/30 20:17:20;;;;;;;;;;;;;;;20.29;49.58;99867.09;1087322;47;19939;-83
2023/07/30 20:18:24;;;;;;;;;;;;;;;20.22;49.47;99867.13;1087399;47;19999;-82
2023/07/30 20:19:27;;;;;;;;;;;;;;;20.22;49.56;99868.97;1087435;54;19949;-82
2023/07/30 20:20:30;;;;;;;;;;;;;;;20.18;49.98;99868.56;1087443;54;19947;-81
2023/07/30 20:21:31;;;;;;;;;;;;;;;20.17;49.82;99869.63;1087269;47;19943;-82
2023/07/30 20:22:34;;;;;;;;;;;;;;;20.10;49.89;99863.38;1087351;47;19962;-82
2023/07/30 20:23:35;;;;;;;;;;;;;;;20.09;50.27;99865.28;1087472;54;19966;-82
2023/07/30 20:24:39;;;;;;;;;;;;;;;20.06;50.36;99864.88;1087186;47;19938;-81
2023/07/30 20:25:44;;;;;;;;;;;;;;;20.05;50.38;99871.34;1087308;47;20366;-83
2023/07/30 20:26:47;;;;;;;;;;;;;;;20.05;50.35;99865.91;1087350;54;19950;-83
2023/07/30 20:27:48;;;;;;;;;;;;;;;20.04;50.48;99865.06;1087314;54;19950;-82
2023/07/30 20:28:55;;;;;;;;;;;;;;;19.97;50.79;99869.66;1087317;47;19938;-84
2023/07/30 20:29:56;;;;;;;;;;;;;;;19.92;50.85;99864.06;1087430;54;19998;-82
2023/07/30 20:30:59;;;;;;;;;;;;;;;19.86;50.87;99862.16;1087637;54;19943;-82
2023/07/30 20:32:00;;;;;;;;;;;;;;;19.80;51.10;99861.94;1087646;54;19946;-81
2023/07/30 20:33:03;;;;;;;;;;;;;;;19.84;51.26;99867.78;1087591;54;19954;-82
2023/07/30 20:34:05;;;;;;;;;;;;;;;19.87;51.12;99863.84;1087642;54;19974;-83
2023/07/30 20:35:09;;;;;;;;;;;;;;;19.86;51.04;99867.59;1087564;54;19950;-81
2023/07/30 20:36:11;;;;;;;;;;;;;;;19.83;50.92;99865.28;1087247;54;19966;-82
2023/07/30 20:37:16;;;;;;;;;;;;;;;19.79;51.15;99868.41;1087388;47;19943;-84
2023/07/30 20:40:15;;;;;;;;;;;;;;;19.84;51.22;99872.38;1087028;54;19950;-81
2023/07/30 20:41:24;;;;;;;;;;;;;;;19.80;51.26;99870.06;1087534;54;19950;-82
2023/07/30 20:44:49;;;;;;;;;;;;;;;19.83;51.27;99863.41;1087250;47;19942;-83
2023/07/30 20:45:58;;;;;;;;;;;;;;;19.74;51.67;99864.66;1088047;54;19943;-83
2023/07/30 20:47:28;;;;;;;;;;;;;;;19.77;51.44;99856.09;1088025;54;19946;-82
2023/07/30 20:48:33;;;;;;;;;;;;;;;19.70;51.68;99856.09;1087534;47;20322;-83
2023/07/30 20:49:42;;;;;;;;;;;;;;;19.69;51.79;99862.56;1087396;47;19954;-83
2023/07/30 20:50:43;;;;;;;;;;;;;;;19.68;51.55;99860.91;1087455;47;19965;-83
2023/07/30 20:51:47;;;;;;;;;;;;;;;19.67;51.82;99858.41;1087424;54;19942;-83
2023/07/30 20:52:48;;;;;;;;;;;;;;;19.69;51.95;99850.91;1087246;54;19943;-81
2023/07/30 20:53:51;;;;;;;;;;;;;;;19.66;52.15;99857.56;1087561;54;19973;-82
2023/07/30 20:54:53;;;;;;;;;;;;;;;19.59;52.26;99857.59;1086849;47;19939;-82
2023/07/30 20:55:59;;;;;;;;;;;;;;;19.60;51.88;99858.41;1087192;46;19938;-82
2023/07/30 20:57:03;;;;;;;;;;;;;;;19.56;52.32;99855.28;1087086;54;19973;-83
2023/07/30 20:58:06;;;;;;;;;;;;;;;19.62;51.88;99857.16;1086831;47;20026;-81
2023/07/30 20:59:07;;;;;;;;;;;;;;;19.62;52.04;99856.31;1087186;54;19951;-83
2023/07/30 21:00:11;;;;;;;;;;;;;;;19.60;51.96;99848.38;1086821;47;20093;-83
2023/07/30 21:01:12;;;;;;;;;;;;;;;19.52;52.51;99859.44;1087679;39;20563;-82
2023/07/30 21:02:16;;;;;;;;;;;;;;;19.58;52.27;99855.06;1086957;47;19939;-83
2023/07/30 21:03:26;;;;;;;;;;;;;;;19.58;52.40;99853.19;1087169;47;19946;-82
2023/07/30 21:04:33;;;;;;;;;;;;;;;19.52;52.66;99862.16;1087194;54;19946;-83
2023/07/30 21:05:43;;;;;;;;;;;;;;;19.45;52.80;99864.88;1088605;39;20567;-82
2023/07/30 21:06:46;;;;;;;;;;;;;;;19.45;52.91;99861.31;1087055;47;19938;-82
2023/07/30 21:07:47;;;;;;;;;;;;;;;19.40;53.33;99858.41;1087006;46;21131;-81
2023/07/30 21:08:50;;;;;;;;;;;;;;;19.37;53.42;99858.81;1087139;47;19939;-82
2023/07/30 21:09:52;;;;;;;;;;;;;;;19.38;53.13;99858.59;1087164;54;19954;-81
2023/07/30 21:10:56;;;;;;;;;;;;;;;19.36;53.41;99859.84;1087123;47;19978;-83
2023/07/30 21:12:05;;;;;;;;;;;;;;;19.37;53.46;99854.22;1086956;47;19955;-82
2023/07/30 21:13:20;;;;;;;;;;;;;;;19.30;53.63;99859.66;1086714;47;19946;-82
2023/07/30 21:14:21;;;;;;;;;;;;;;;19.32;53.78;99852.13;1087067;54;19973;-82
2023/07/30 21:15:25;;;;;;;;;;;;;;;19.35;53.18;99856.31;1087127;47;19943;-82
2023/07/30 21:16:30;;;;;;;;;;;;;;;19.36;53.20;99849.88;1086825;46;19943;-81
2023/07/30 21:17:50;;;;;;;;;;;;;;;19.37;53.29;99853.38;1087064;47;19957;-82
2023/07/30 21:18:55;;;;;;;;;;;;;;;19.39;53.19;99854.03;1087377;54;19942;-82
2023/07/30 21:21:22;;;;;;;;;;;;;;;19.39;52.85;99851.31;1087186;54;19947;-82
2023/07/30 21:22:23;;;;;;;;;;;;;;;19.43;52.73;99856.13;1087288;47;19977;-83
2023/07/30 21:23:27;;;;;;;;;;;;;;;19.46;52.62;99855.69;1087193;54;19943;-82
2023/07/30 21:24:35;;;;;;;;;;;;;;;19.49;52.80;99857.97;1087407;54;19946;-84
2023/07/30 21:26:23;;;;;;;;;;;;;;;19.52;52.18;99856.72;1087449;46;19975;-83
2023/07/30 21:27:35;;;;;;;;;;;;;;;19.53;52.15;99857.56;1087294;47;19942;-84
2023/07/30 21:30:11;;;;;;;;;;;;;;;19.44;52.52;99855.06;1086764;47;19949;-83
2023/07/30 21:31:28;;;;;;;;;;;;;;;19.47;52.83;99854.63;1087306;54;19943;-82
2023/07/30 21:32:51;;;;;;;;;;;;;;;19.39;53.15;99862.97;1087293;54;19942;-83
2023/07/30 21:36:33;;;;;;;;;;;;;;;19.24;53.65;99859.63;1087308;54;20034;-83
2023/07/30 21:39:45;;;;;;;;;;;;;;;19.08;53.82;99856.25;1087537;47;20008;-82
2023/07/30 21:40:50;;;;;;;;;;;;;;;19.05;54.07;99861.25;1087426;54;19950;-81
2023/07/30 21:41:53;;;;;;;;;;;;;;;19.10;53.77;99854.19;1087799;54;19994;-82
2023/07/30 21:42:54;;;;;;;;;;;;;;;19.06;53.95;99869.19;1089758;39;20213;-82
2023/07/30 21:44:00;;;;;;;;;;;;;;;19.09;53.93;99868.75;1087382;54;19978;-83
2023/07/30 21:45:26;;;;;;;;;;;;;;;18.99;53.93;99861.03;1087228;54;19943;-81
2023/07/30 21:46:55;;;;;;;;;;;;;;;19.01;54.21;99871.66;1087218;47;19942;-83
2023/07/30 21:47:56;;;;;;;;;;;;;;;19.00;53.86;99864.56;1087495;54;20478;-82
2023/07/30 21:48:59;;;;;;;;;;;;;;;18.93;54.27;99866.44;1087547;54;19968;-82
2023/07/30 21:50:02;;;;;;;;;;;;;;;18.99;54.01;99865.63;1092062;39;20218;-81
2023/07/30 21:51:08;;;;;;;;;;;;;;;18.93;54.22;99869.16;1087275;47;19955;-81
2023/07/30 21:52:26;;;;;;;;;;;;;;;18.91;54.38;99871.19;1087321;54;19958;-82
2023/07/30 21:53:30;;;;;;;;;;;;;;;18.92;54.63;99867.44;1091775;39;20182;-82
2023/07/30 21:54:32;;;;;;;;;;;;;;;18.87;54.61;99862.63;1087369;47;19946;-81
2023/07/30 21:55:38;;;;;;;;;;;;;;;18.84;54.92;99869.31;1087313;54;19943;-81
2023/07/30 21:56:40;;;;;;;;;;;;;;;18.79;54.63;99866.38;1087581;54;20789;-82
2023/07/30 21:57:45;;;;;;;;;;;;;;;18.81;54.87;99867.00;1087269;47;19946;-81
2023/07/30 21:58:46;;;;;;;;;;;;;;;18.81;55.09;99871.59;1087567;47;20002;-81
2023/07/30 21:59:52;;;;;;;;;;;;;;;18.81;54.96;99877.81;1087419;54;19967;-81
2023/07/30 22:00:53;;;;;;;;;;;;;;;18.82;54.70;99867.84;1087588;54;20014;-81
2023/07/30 22:01:57;;;;;;;;;;;;;;;18.70;55.19;99868.44;1087553;54;19943;-80
2023/07/30 22:03:04;;;;;;;;;;;;;;;18.76;55.42;99874.06;1087351;47;19962;-80
2023/07/30 22:04:25;;;;;;;;;;;;;;;18.78;55.26;99872.84;1087431;47;19963;-82
2023/07/30 22:05:26;;;;;;;;;;;;;;;18.84;55.06;99865.78;1087307;47;19946;-82
2023/07/30 22:06:30;;;;;;;;;;;;;;;18.77;55.04;99873.03;1087588;47;19949;-82
2023/07/30 22:07:31;;;;;;;;;;;;;;;18.83;55.11;99864.94;1087562;54;19943;-82
2023/07/30 22:08:33;;;;;;;;;;;;;;;18.88;54.81;99868.91;1087883;54;19946;-82
2023/07/30 22:09:39;;;;;;;;;;;;;;;18.83;54.85;99873.06;1087536;47;19938;-81
2023/07/30 22:10:41;;;;;;;;;;;;;;;18.80;54.52;99872.63;1087411;54;20026;-82
2023/07/30 22:11:45;;;;;;;;;;;;;;;18.77;54.80;99871.16;1087388;47;19943;-80
2023/07/30 22:12:46;;;;;;;;;;;;;;;18.78;54.72;99872.84;1087532;54;19943;-81
2023/07/30 22:13:49;;;;;;;;;;;;;;;18.66;55.29;99867.16;1087592;54;19965;-81
2023/07/30 22:14:53;;;;;;;;;;;;;;;18.66;55.15;99871.75;1087308;54;19938;-81
2023/07/30 22:15:57;;;;;;;;;;;;;;;18.70;55.23;99873.03;1087369;54;19943;-81
2023/07/30 22:16:58;;;;;;;;;;;;;;;18.74;55.23;99868.84;1087455;47;19954;-81
2023/07/30 22:18:04;;;;;;;;;;;;;;;18.76;54.95;99872.19;1087703;47;20014;-83
2023/07/30 22:19:12;;;;;;;;;;;;;;;18.73;54.95;99869.88;1088039;54;19930;-82
2023/07/30 22:21:03;;;;;;;;;;;;;;;18.65;55.32;99876.34;1088036;54;19991;-84
2023/07/30 22:22:04;;;;;;;;;;;;;;;18.63;55.33;99870.28;1087302;47;20018;-82
2023/07/30 22:23:10;;;;;;;;;;;;;;;18.66;55.59;99869.03;1087537;47;19950;-82
2023/07/30 22:24:13;;;;;;;;;;;;;;;18.63;55.65;99866.72;1087635;54;19926;-82
2023/07/30 22:25:20;;;;;;;;;;;;;;;18.65;55.61;99872.78;1087399;47;19951;-83
2023/07/30 22:26:21;;;;;;;;;;;;;;;18.67;55.43;99870.72;1087163;54;19950;-82
2023/07/30 22:27:33;;;;;;;;;;;;;;;18.64;55.64;99876.50;1087046;47;19978;-82
2023/07/30 22:28:42;;;;;;;;;;;;;;;18.67;55.78;99870.72;1086815;47;19978;-82
2023/07/30 22:29:46;;;;;;;;;;;;;;;18.62;55.95;99874.03;1086748;54;19943;-82
2023/07/30 22:30:50;;;;;;;;;;;;;;;18.65;55.67;99864.66;1087451;47;19959;-82
2023/07/30 22:32:03;;;;;;;;;;;;;;;18.62;55.98;99870.47;1087416;54;19962;-82
2023/07/30 22:33:05;;;;;;;;;;;;;;;18.62;55.96;99867.75;1087684;47;19934;-82
2023/07/30 22:34:09;;;;;;;;;;;;;;;18.56;56.03;99872.13;1087485;47;19942;-82
2023/07/30 22:35:10;;;;;;;;;;;;;;;18.59;55.86;99870.88;1087507;54;19951;-82
2023/07/30 22:36:14;;;;;;;;;;;;;;;18.54;56.20;99871.50;1087591;54;19971;-82
2023/07/30 22:37:20;;;;;;;;;;;;;;;18.55;55.87;99867.75;1087780;54;19943;-84
2023/07/30 22:38:24;;;;;;;;;;;;;;;18.59;55.91;99873.59;1087813;47;19951;-83
2023/07/30 22:39:57;;;;;;;;;;;;;;;18.59;56.11;99868.19;1088164;54;19950;-83
2023/07/30 22:44:42;;;;;;;;;;;;;;;18.52;56.21;99868.16;1088223;54;19995;-85
2023/07/30 22:46:18;;;;;;;;;;;;;;;18.54;56.08;99866.06;1088342;54;19927;-83
2023/07/30 23:01:01;;;;;;;;;;;;;;;;;;;;;
2023/07/30 23:02:12;;;;;;;;;;;;;;;18.67;55.70;99860.69;1087599;54;19939;-84
2023/07/30 23:03:33;;;;;;;;;;;;;;;18.73;55.55;99860.94;1087719;47;19943;-85
2023/07/30 23:04:41;;;;;;;;;;;;;;;18.75;55.46;99862.41;1087665;47;20183;-84
2023/07/30 23:05:54;;;;;;;;;;;;;;;18.75;55.60;99857.00;1087786;47;20010;-86
2023/07/30 23:07:06;;;;;;;;;;;;;;;18.76;55.43;99858.66;1087883;47;19926;-85
2023/07/30 23:08:07;;;;;;;;;;;;;;;18.78;55.43;99851.19;1087636;54;19939;-84
2023/07/30 23:10:36;;;;;;;;;;;;;;;18.81;55.57;99848.03;1087928;54;19949;-85
2023/07/30 23:11:40;;;;;;;;;;;;;;;18.81;55.67;99855.34;1088163;54;19926;-84
2023/07/30 23:12:47;;;;;;;;;;;;;;;18.82;55.45;99852.41;1088013;47;19945;-84
2023/07/30 23:14:10;;;;;;;;;;;;;;;;;;;;;
2023/07/30 23:15:53;;;;;;;;;;;;;;;18.90;55.30;99845.16;1088000;54;20872;-84
2023/07/30 23:17:00;;;;;;;;;;;;;;;18.88;55.35;99845.34;1087801;47;19942;-84
2023/07/30 23:18:12;;;;;;;;;;;;;;;18.92;55.08;99845.78;1087942;47;19976;-83
2023/07/30 23:19:20;;;;;;;;;;;;;;;18.94;55.17;99851.88;1088083;47;19926;-85
2023/07/30 23:20:31;;;;;;;;;;;;;;;18.93;55.29;99842.06;1088034;47;19943;-84
2023/07/30 23:21:40;;;;;;;;;;;;;;;18.96;55.15;99847.09;1088146;54;19979;-85
2023/07/30 23:22:47;;;;;;;;;;;;;;;18.89;55.50;99840.78;1088239;54;19942;-82
2023/07/30 23:23:54;;;;;;;;;;;;;;;18.89;55.40;99846.22;1088001;47;19943;-84
2023/07/30 23:25:01;;;;;;;;;;;;;;;18.85;55.62;99841.19;1087831;47;19943;-84
2023/07/30 23:26:18;;;;;;;;;;;;;;;18.83;55.51;99840.56;1087953;47;19942;-84
2023/07/30 23:29:09;;;;;;;;;;;;;;;18.94;55.31;99843.75;1087603;54;19938;-83
2023/07/30 23:30:10;;;;;;;;;;;;;;;18.95;54.97;99840.81;1087575;54;19943;-84
2023/07/30 23:31:13;;;;;;;;;;;;;;;18.84;55.18;99844.94;1087636;54;19973;-83
2023/07/30 23:32:17;;;;;;;;;;;;;;;18.83;55.13;99847.84;1088003;54;19926;-83
2023/07/30 23:33:21;;;;;;;;;;;;;;;18.93;55.34;99847.47;1087488;54;19942;-83
2023/07/30 23:34:22;;;;;;;;;;;;;;;18.85;55.21;99838.47;1087861;54;19927;-83
2023/07/30 23:35:26;;;;;;;;;;;;;;;18.93;55.03;99847.47;1088153;39;20134;-83
2023/07/30 23:36:27;;;;;;;;;;;;;;;18.99;54.90;99839.38;1087764;54;19942;-83
2023/07/30 23:37:31;;;;;;;;;;;;;;;18.98;54.99;99839.59;1087484;54;19943;-83
2023/07/30 23:38:32;;;;;;;;;;;;;;;18.92;55.04;99840.38;1087558;54;19974;-84
2023/07/30 23:39:38;;;;;;;;;;;;;;;18.92;54.96;99841.22;1087569;54;19950;-83
2023/07/30 23:40:40;;;;;;;;;;;;;;;18.83;55.11;99840.56;1087374;47;19950;-82